createdAt,value
2022-12-14T00:01:37.837Z,-10.40
2022-12-14T00:04:25.532Z,-10.40
2022-12-14T00:07:13.184Z,-10.50
2022-12-14T00:10:00.623Z,-10.50
2022-12-14T00:12:48.351Z,-10.60
2022-12-14T00:15:38.242Z,-10.60
2022-12-14T00:18:28.895Z,-10.60
2022-12-14T00:21:16.787Z,-10.70
2022-12-14T00:24:04.816Z,-10.60
2022-12-14T00:26:53.033Z,-10.60
2022-12-14T00:29:40.709Z,-10.60
2022-12-14T00:32:28.848Z,-10.60
2022-12-14T00:35:19.368Z,-10.70
2022-12-14T00:38:07.018Z,-10.70
2022-12-14T00:40:55.323Z,-10.70
2022-12-14T00:43:42.844Z,-10.80
2022-12-14T00:46:30.581Z,-10.80
2022-12-14T00:49:18.119Z,-10.80
2022-12-14T00:52:07.274Z,-10.90
2022-12-14T00:54:54.693Z,-10.90
2022-12-14T00:57:42.353Z,-10.90
2022-12-14T01:00:29.893Z,-10.90
2022-12-14T01:03:17.576Z,-10.90
2022-12-14T01:06:05.052Z,-10.90
2022-12-14T01:08:54.130Z,-11.00
2022-12-14T01:11:42.233Z,-11.00
2022-12-14T01:14:29.944Z,-11.00
2022-12-14T01:17:17.738Z,-10.90
2022-12-14T01:20:06.047Z,-11.00
2022-12-14T01:22:56.264Z,-11.00
2022-12-14T01:25:45.425Z,-11.00
2022-12-14T01:28:37.191Z,-11.00
2022-12-14T01:31:27.422Z,-11.00
2022-12-14T01:34:15.018Z,-11.00
2022-12-14T01:37:02.340Z,-11.00
2022-12-14T01:39:49.855Z,-11.00
2022-12-14T01:42:38.937Z,-11.10
2022-12-14T01:45:26.742Z,-11.10
2022-12-14T01:48:15.364Z,-11.10
2022-12-14T01:51:03.463Z,-11.00
2022-12-14T01:53:51.683Z,-11.10
2022-12-14T01:56:43.014Z,-11.10
2022-12-14T01:59:36.063Z,-11.10
2022-12-14T02:02:24.486Z,-11.10
2022-12-14T02:09:32.259Z,-11.20
2022-12-14T02:12:22.716Z,-11.30
2022-12-14T02:15:13.570Z,-11.40
2022-12-14T02:18:04.247Z,-11.40
2022-12-14T02:21:20.397Z,-11.40
2022-12-14T02:24:39.741Z,-11.40
2022-12-14T02:28:09.273Z,-11.50
2022-12-14T02:31:07.812Z,-11.50
2022-12-14T02:33:59.716Z,-11.50
2022-12-14T02:36:54.447Z,-11.50
2022-12-14T02:39:49.782Z,-11.50
2022-12-14T02:42:46.641Z,-11.50
2022-12-14T02:45:39.792Z,-11.50
2022-12-14T02:48:36.986Z,-11.50
2022-12-14T02:51:32.509Z,-11.50
2022-12-14T02:54:26.600Z,-11.50
2022-12-14T02:57:22.178Z,-11.50
2022-12-14T03:00:11.538Z,-11.50
2022-12-14T03:02:59.692Z,-11.50
2022-12-14T03:05:58.229Z,-11.50
2022-12-14T03:08:48.388Z,-11.50
2022-12-14T03:11:42.285Z,-11.50
2022-12-14T03:14:35.239Z,-11.50
2022-12-14T03:17:27.320Z,-11.50
2022-12-14T03:20:20.835Z,-11.50
2022-12-14T03:23:13.299Z,-11.50
2022-12-14T03:26:08.091Z,-11.60
2022-12-14T03:29:01.923Z,-11.60
2022-12-14T03:31:54.266Z,-11.60
2022-12-14T03:34:49.209Z,-11.60
2022-12-14T03:37:41.974Z,-11.60
2022-12-14T03:40:35.613Z,-11.60
2022-12-14T03:43:30.534Z,-11.70
2022-12-14T03:46:29.910Z,-11.70
2022-12-14T03:49:21.578Z,-11.70
2022-12-14T03:52:13.406Z,-11.70
2022-12-14T03:55:09.204Z,-11.70
2022-12-14T03:58:26.159Z,-11.60
2022-12-14T04:01:15.551Z,-11.70
2022-12-14T04:04:08.130Z,-11.70
2022-12-14T04:07:00.978Z,-11.60
2022-12-14T04:09:54.113Z,-11.60
2022-12-14T04:13:05.288Z,-11.70
2022-12-14T04:16:15.755Z,-11.70
2022-12-14T04:19:11.382Z,-11.70
2022-12-14T04:22:03.905Z,-11.70
2022-12-14T04:25:17.838Z,-11.70
2022-12-14T04:28:32.262Z,-11.70
2022-12-14T04:31:23.054Z,-11.60
2022-12-14T04:34:13.988Z,-11.60
2022-12-14T04:37:04.658Z,-11.60
2022-12-14T04:39:55.196Z,-11.60
2022-12-14T04:42:47.454Z,-11.60
2022-12-14T04:45:37.074Z,-11.50
2022-12-14T04:48:33.024Z,-11.50
2022-12-14T04:51:27.406Z,-11.50
2022-12-14T04:54:20.849Z,-11.50
2022-12-14T04:57:19.124Z,-11.40
2022-12-14T05:00:08.184Z,-11.40
2022-12-14T05:03:14.625Z,-11.40
2022-12-14T05:06:10.212Z,-11.40
2022-12-14T05:09:15.778Z,-11.40
2022-12-14T05:12:09.202Z,-11.40
2022-12-14T05:15:03.403Z,-11.30
2022-12-14T05:17:51.289Z,-11.30
2022-12-14T05:20:39.521Z,-11.30
2022-12-14T05:23:28.648Z,-11.40
2022-12-14T05:26:16.578Z,-11.50
2022-12-14T05:29:04.053Z,-11.40
2022-12-14T05:31:52.784Z,-11.40
2022-12-14T05:34:40.803Z,-11.40
2022-12-14T05:37:28.448Z,-11.40
2022-12-14T05:40:17.892Z,-11.40
2022-12-14T05:43:06.553Z,-11.40
2022-12-14T05:45:59.804Z,-11.40
2022-12-14T05:48:49.375Z,-11.40
2022-12-14T05:51:37.104Z,-11.40
2022-12-14T05:54:24.503Z,-11.40
2022-12-14T05:57:13.413Z,-11.50
2022-12-14T06:00:00.651Z,-11.50
2022-12-14T06:02:48.186Z,-11.50
2022-12-14T06:05:36.167Z,-11.50
2022-12-14T06:08:23.786Z,-11.50
2022-12-14T06:11:12.690Z,-11.50
2022-12-14T06:14:01.755Z,-11.50
2022-12-14T06:16:49.044Z,-11.50
2022-12-14T06:19:36.482Z,-11.50
2022-12-14T06:22:24.242Z,-11.50
2022-12-14T06:25:11.883Z,-11.50
2022-12-14T06:27:59.367Z,-11.40
2022-12-14T06:30:50.115Z,-11.40
2022-12-14T06:33:37.847Z,-11.40
2022-12-14T06:36:26.950Z,-11.40
2022-12-14T06:39:16.755Z,-11.30
2022-12-14T06:42:04.646Z,-11.30
2022-12-14T06:44:52.207Z,-11.30
2022-12-14T06:47:41.533Z,-11.20
2022-12-14T06:50:29.028Z,-11.20
2022-12-14T06:53:16.822Z,-11.20
2022-12-14T06:56:08.611Z,-11.20
2022-12-14T06:58:56.752Z,-11.20
2022-12-14T07:01:49.751Z,-11.10
2022-12-14T07:04:39.646Z,-11.10
2022-12-14T07:07:27.096Z,-11.00
2022-12-14T07:10:14.901Z,-11.00
2022-12-14T07:13:02.467Z,-10.90
2022-12-14T07:15:53.425Z,-10.90
2022-12-14T07:18:40.732Z,-10.80
2022-12-14T07:21:29.633Z,-10.80
2022-12-14T07:24:18.061Z,-10.70
2022-12-14T07:27:05.976Z,-10.60
2022-12-14T07:29:53.614Z,-10.60
2022-12-14T07:32:41.140Z,-10.50
2022-12-14T07:35:28.702Z,-10.40
2022-12-14T07:38:17.516Z,-10.30
2022-12-14T07:41:06.778Z,-10.20
2022-12-14T07:43:55.845Z,-10.10
2022-12-14T07:46:43.347Z,-10.00
2022-12-14T07:49:30.679Z,-9.90
2022-12-14T07:52:17.955Z,-9.90
2022-12-14T07:55:08.041Z,-9.70
2022-12-14T07:57:55.403Z,-9.70
2022-12-14T08:00:42.943Z,-9.60
2022-12-14T08:03:30.704Z,-9.50
2022-12-14T08:06:21.134Z,-9.40
2022-12-14T08:09:10.096Z,-9.40
2022-12-14T08:11:59.277Z,-9.30
2022-12-14T08:14:47.246Z,-9.20
2022-12-14T08:17:36.505Z,-9.10
2022-12-14T08:20:24.533Z,-9.10
2022-12-14T08:23:12.187Z,-9.00
2022-12-14T08:26:01.973Z,-8.90
2022-12-14T08:28:50.925Z,-8.80
2022-12-14T08:31:38.373Z,-8.70
2022-12-14T08:34:25.851Z,-8.50
2022-12-14T08:37:13.675Z,-8.30
2022-12-14T08:40:00.997Z,-8.10
2022-12-14T08:42:51.283Z,-7.90
2022-12-14T08:45:40.306Z,-7.70
2022-12-14T08:48:28.340Z,-7.60
2022-12-14T08:51:16.000Z,-7.60
2022-12-14T08:54:03.510Z,-7.50
2022-12-14T08:56:50.925Z,-7.50
2022-12-14T09:00:00.823Z,-7.40
2022-12-14T09:02:51.291Z,-7.40
2022-12-14T09:05:39.463Z,-7.40
2022-12-14T09:08:27.240Z,-7.40
2022-12-14T09:11:16.430Z,-7.30
2022-12-14T09:14:03.840Z,-7.20
2022-12-14T09:16:51.454Z,-7.00
2022-12-14T09:19:40.519Z,-6.90
2022-12-14T09:22:27.937Z,-6.70
2022-12-14T09:25:15.776Z,-6.60
2022-12-14T09:28:03.127Z,-6.40
2022-12-14T09:30:56.800Z,-6.20
2022-12-14T09:33:44.538Z,-6.00
2022-12-14T09:36:33.581Z,-5.90
2022-12-14T09:39:20.828Z,-5.60
2022-12-14T09:42:21.577Z,-5.40
2022-12-14T09:45:17.387Z,-5.30
2022-12-14T09:48:15.674Z,-5.20
2022-12-14T09:51:03.777Z,-5.10
2022-12-14T09:54:06.651Z,-5.00
2022-12-14T09:56:55.467Z,-5.00
2022-12-14T09:59:44.173Z,-4.80
2022-12-14T10:02:43.923Z,-4.70
2022-12-14T10:05:51.609Z,-4.50
2022-12-14T10:08:49.525Z,-4.50
2022-12-14T10:11:49.118Z,-4.40
2022-12-14T10:14:44.595Z,-4.30
2022-12-14T10:17:44.070Z,-4.20
2022-12-14T10:20:43.233Z,-4.10
2022-12-14T10:23:31.731Z,-3.90
2022-12-14T10:26:24.037Z,-3.80
2022-12-14T10:29:18.716Z,-3.70
2022-12-14T10:32:20.450Z,-3.50
2022-12-14T10:35:15.414Z,-3.30
2022-12-14T10:38:07.674Z,-3.20
2022-12-14T10:41:00.007Z,-3.10
2022-12-14T10:43:54.554Z,-2.90
2022-12-14T10:46:49.412Z,-2.80
2022-12-14T10:49:43.193Z,-2.60
2022-12-14T10:52:38.199Z,-2.50
2022-12-14T10:55:32.072Z,-2.30
2022-12-14T10:58:19.628Z,-2.20
2022-12-14T11:01:13.395Z,-2.20
2022-12-14T11:04:02.842Z,-2.00
2022-12-14T11:06:50.775Z,-2.00
2022-12-14T11:09:39.337Z,-1.90
2022-12-14T11:12:28.324Z,-1.90
2022-12-14T11:15:25.749Z,-1.80
2022-12-14T11:18:28.794Z,-1.80
2022-12-14T11:21:18.312Z,-1.80
2022-12-14T11:24:06.856Z,-1.90
2022-12-14T11:26:57.305Z,-1.90
2022-12-14T11:29:47.665Z,-2.00
2022-12-14T11:32:35.208Z,-2.00
2022-12-14T11:35:22.991Z,-1.90
2022-12-14T11:38:16.844Z,-1.80
2022-12-14T11:41:11.001Z,-1.70
2022-12-14T11:44:07.559Z,-1.60
2022-12-14T11:46:56.807Z,-1.30
2022-12-14T11:49:47.329Z,-1.10
2022-12-14T11:52:43.341Z,-1.00
2022-12-14T11:55:34.806Z,-0.80
2022-12-14T11:58:26.503Z,-0.70
2022-12-14T12:01:17.584Z,-0.70
2022-12-14T12:04:05.554Z,-0.70
2022-12-14T12:06:58.957Z,-0.70
2022-12-14T12:09:48.706Z,-0.80
2022-12-14T12:12:37.686Z,-0.80
2022-12-14T12:15:31.429Z,-0.90
2022-12-14T12:18:25.795Z,-1.00
2022-12-14T12:21:17.985Z,-1.00
2022-12-14T12:24:12.352Z,-0.90
2022-12-14T12:27:02.695Z,-0.80
2022-12-14T12:29:56.338Z,-0.70
2022-12-14T12:32:49.931Z,-0.70
2022-12-14T12:35:44.592Z,-0.60
2022-12-14T12:38:50.394Z,-0.50
2022-12-14T12:41:47.431Z,-0.50
2022-12-14T12:44:49.780Z,-0.60
2022-12-14T12:47:47.709Z,-0.60
2022-12-14T12:50:38.454Z,-0.60
2022-12-14T12:53:31.982Z,-0.70
2022-12-14T12:56:22.646Z,-0.70
2022-12-14T12:59:18.968Z,-0.70
2022-12-14T13:02:29.706Z,-0.80
2022-12-14T13:05:45.795Z,-0.70
2022-12-14T13:08:33.740Z,-0.70
2022-12-14T13:11:26.812Z,-0.80
2022-12-14T13:14:24.418Z,-0.80
2022-12-14T13:17:28.346Z,-0.80
2022-12-14T13:20:23.284Z,-0.90
2022-12-14T13:23:43.566Z,-0.90
2022-12-14T13:30:18.580Z,-1.00
2022-12-14T13:33:36.421Z,-1.00
2022-12-14T13:36:31.856Z,-1.00
2022-12-14T13:39:50.846Z,-1.00
2022-12-14T13:42:51.996Z,-1.10
2022-12-14T13:45:42.749Z,-1.10
2022-12-14T13:48:41.391Z,-1.10
2022-12-14T13:51:33.232Z,-1.20
2022-12-14T13:54:27.707Z,-1.20
2022-12-14T13:57:23.390Z,-1.30
2022-12-14T14:00:50.402Z,-1.30
2022-12-14T14:04:14.631Z,-1.30
2022-12-14T14:07:35.048Z,-1.40
2022-12-14T14:10:33.577Z,-1.40
2022-12-14T14:14:02.967Z,-1.40
2022-12-14T14:16:56.357Z,-1.40
2022-12-14T14:19:49.680Z,-1.50
2022-12-14T14:22:38.003Z,-1.60
2022-12-14T14:25:47.118Z,-1.60
2022-12-14T14:28:38.153Z,-1.70
2022-12-14T14:31:46.397Z,-1.70
2022-12-14T14:34:47.060Z,-1.80
2022-12-14T14:37:36.358Z,-1.80
2022-12-14T14:40:51.337Z,-1.90
2022-12-14T14:43:43.783Z,-1.90
2022-12-14T14:46:42.127Z,-2.00
2022-12-14T14:49:32.304Z,-2.00
2022-12-14T14:53:02.418Z,-2.00
2022-12-14T14:55:58.273Z,-2.10
2022-12-14T14:58:47.123Z,-2.20
2022-12-14T15:01:35.436Z,-2.20
2022-12-14T15:04:26.462Z,-2.30
2022-12-14T15:07:18.790Z,-2.30
2022-12-14T15:10:22.193Z,-2.30
2022-12-14T15:13:20.022Z,-2.30
2022-12-14T15:16:28.806Z,-2.40
2022-12-14T15:19:28.261Z,-2.40
2022-12-14T15:22:18.697Z,-2.40
2022-12-14T15:25:12.502Z,-2.50
2022-12-14T15:28:06.519Z,-2.50
2022-12-14T15:30:55.415Z,-2.50
2022-12-14T15:33:48.070Z,-2.60
2022-12-14T15:36:40.205Z,-2.60
2022-12-14T15:39:35.880Z,-2.60
2022-12-14T15:42:23.399Z,-2.60
2022-12-14T15:45:15.439Z,-2.70
2022-12-14T15:48:14.286Z,-2.70
2022-12-14T15:51:05.604Z,-2.70
2022-12-14T15:53:55.458Z,-2.70
2022-12-14T15:56:46.278Z,-2.70
2022-12-14T15:59:36.166Z,-2.70
2022-12-14T16:02:28.733Z,-2.70
2022-12-14T16:05:20.375Z,-2.70
2022-12-14T16:08:12.105Z,-2.80
2022-12-14T16:11:02.499Z,-2.80
2022-12-14T16:13:50.856Z,-2.80
2022-12-14T16:16:38.997Z,-2.80
2022-12-14T16:19:31.484Z,-2.80
2022-12-14T16:22:24.524Z,-2.80
2022-12-14T16:25:22.716Z,-2.80
2022-12-14T16:28:28.530Z,-2.80
2022-12-14T16:31:21.120Z,-2.80
2022-12-14T16:34:15.071Z,-2.80
2022-12-14T16:37:31.673Z,-2.70
2022-12-14T16:40:29.272Z,-2.70
2022-12-14T16:43:30.067Z,-2.70
2022-12-14T16:46:19.287Z,-2.70
2022-12-14T16:49:22.191Z,-2.70
2022-12-14T16:52:19.984Z,-2.70
2022-12-14T16:55:13.506Z,-2.70
2022-12-14T16:58:02.829Z,-2.70
2022-12-14T17:00:59.689Z,-2.60
2022-12-14T17:03:55.014Z,-2.60
2022-12-14T17:06:47.722Z,-2.60
2022-12-14T17:09:36.629Z,-2.60
2022-12-14T17:12:26.078Z,-2.60
2022-12-14T17:15:16.068Z,-2.60
2022-12-14T17:18:05.735Z,-2.60
2022-12-14T17:20:53.488Z,-2.60
2022-12-14T17:23:42.934Z,-2.60
2022-12-14T17:26:32.129Z,-2.60
2022-12-14T17:29:21.977Z,-2.60
2022-12-14T17:32:13.444Z,-2.60
2022-12-14T17:35:01.277Z,-2.60
2022-12-14T17:37:49.531Z,-2.60
2022-12-14T17:40:38.120Z,-2.60
2022-12-14T17:43:27.867Z,-2.60
2022-12-14T17:46:16.119Z,-2.50
2022-12-14T17:49:06.927Z,-2.50
2022-12-14T17:51:54.565Z,-2.50
2022-12-14T17:54:42.054Z,-2.50
2022-12-14T17:57:29.486Z,-2.50
2022-12-14T18:00:37.217Z,-2.50
2022-12-14T18:03:24.609Z,-2.50
2022-12-14T18:06:17.796Z,-2.50
2022-12-14T18:09:07.952Z,-2.40
2022-12-14T18:12:22.118Z,-2.40
2022-12-14T18:15:03.226Z,-2.30
2022-12-14T18:17:51.709Z,-2.40
2022-12-14T18:20:42.124Z,-2.40
2022-12-14T18:23:32.945Z,-2.40
2022-12-14T18:26:22.493Z,-2.40
2022-12-14T18:29:10.197Z,-2.40
2022-12-14T18:31:58.022Z,-2.40
2022-12-14T18:34:45.543Z,-2.40
2022-12-14T18:37:33.826Z,-2.40
2022-12-14T18:40:25.346Z,-2.40
2022-12-14T18:43:18.410Z,-2.40
2022-12-14T18:46:06.302Z,-2.40
2022-12-14T18:48:53.990Z,-2.40
2022-12-14T18:51:41.251Z,-2.40
2022-12-14T18:54:28.622Z,-2.50
2022-12-14T18:57:17.340Z,-2.40
2022-12-14T19:00:06.059Z,-2.40
2022-12-14T19:02:53.628Z,-2.30
2022-12-14T19:05:41.519Z,-2.30
2022-12-14T19:08:28.813Z,-2.40
2022-12-14T19:11:25.873Z,-2.30
2022-12-14T19:14:14.992Z,-2.40
2022-12-14T19:17:02.877Z,-2.40
2022-12-14T19:19:50.819Z,-2.40
2022-12-14T19:22:38.703Z,-2.40
2022-12-14T19:25:26.452Z,-2.40
2022-12-14T19:28:31.479Z,-2.40
2022-12-14T19:31:21.661Z,-2.40
2022-12-14T19:34:09.984Z,-2.40
2022-12-14T19:36:57.634Z,-2.40
2022-12-14T19:39:45.467Z,-2.40
2022-12-14T19:42:33.270Z,-2.40
2022-12-14T19:45:20.789Z,-2.40
2022-12-14T19:48:13.164Z,-2.50
2022-12-14T19:51:04.685Z,-2.50
2022-12-14T19:53:52.906Z,-2.50
2022-12-14T19:56:40.906Z,-2.50
2022-12-14T19:59:28.434Z,-2.50
2022-12-14T20:02:17.239Z,-2.50
2022-12-14T20:05:07.497Z,-2.50
2022-12-14T20:07:55.114Z,-2.60
2022-12-14T20:10:42.543Z,-2.60
2022-12-14T20:13:31.467Z,-2.60
2022-12-14T20:16:20.680Z,-2.60
2022-12-14T20:19:08.467Z,-2.70
2022-12-14T20:21:57.365Z,-2.70
2022-12-14T20:24:47.086Z,-2.80
2022-12-14T20:27:40.435Z,-2.80
2022-12-14T20:30:28.192Z,-2.90
2022-12-14T20:33:16.334Z,-2.90
2022-12-14T20:36:04.053Z,-2.90
2022-12-14T20:38:57.806Z,-2.90
2022-12-14T20:41:45.620Z,-2.90
2022-12-14T20:44:33.537Z,-2.90
2022-12-14T20:47:21.052Z,-2.90
2022-12-14T20:50:08.564Z,-2.90
2022-12-14T20:52:56.214Z,-2.90
2022-12-14T20:55:45.502Z,-2.90
2022-12-14T20:58:33.215Z,-2.90
2022-12-14T21:01:22.111Z,-2.90
2022-12-14T21:04:10.617Z,-2.80
2022-12-14T21:06:58.269Z,-2.80
2022-12-14T21:09:45.663Z,-2.80
2022-12-14T21:12:34.899Z,-2.80
2022-12-14T21:15:22.630Z,-2.80
2022-12-14T21:18:10.006Z,-2.80
2022-12-14T21:21:04.806Z,-2.80
2022-12-14T21:23:52.284Z,-2.80
2022-12-14T21:26:40.858Z,-2.70
2022-12-14T21:29:29.845Z,-2.70
2022-12-14T21:32:18.441Z,-2.70
2022-12-14T21:35:07.036Z,-2.70
2022-12-14T21:37:54.519Z,-2.70
2022-12-14T21:40:59.385Z,-2.70
2022-12-14T21:43:46.989Z,-2.70
2022-12-14T21:46:37.217Z,-2.70
2022-12-14T21:49:25.405Z,-2.70
2022-12-14T21:52:14.506Z,-2.70
2022-12-14T21:55:03.568Z,-2.60
2022-12-14T21:58:08.686Z,-2.60
2022-12-14T22:00:56.392Z,-2.60
2022-12-14T22:03:46.527Z,-2.60
2022-12-14T22:06:36.965Z,-2.60
2022-12-14T22:09:25.262Z,-2.60
2022-12-14T22:12:13.539Z,-2.60
2022-12-14T22:15:01.707Z,-2.60
2022-12-14T22:17:50.762Z,-2.60
2022-12-14T22:20:39.673Z,-2.60
2022-12-14T22:23:27.421Z,-2.60
2022-12-14T22:26:15.433Z,-2.60
2022-12-14T22:29:02.815Z,-2.70
2022-12-14T22:31:51.588Z,-2.60
2022-12-14T22:34:39.666Z,-2.60
2022-12-14T22:37:28.454Z,-2.70
2022-12-14T22:40:16.488Z,-2.70
2022-12-14T22:43:03.866Z,-2.70
2022-12-14T22:45:51.423Z,-2.80
2022-12-14T22:48:39.910Z,-2.80
2022-12-14T22:51:29.227Z,-2.90
2022-12-14T22:54:22.027Z,-2.90
2022-12-14T22:57:14.550Z,-3.00
2022-12-14T23:00:07.240Z,-3.10
2022-12-14T23:02:56.079Z,-3.10
2022-12-14T23:05:43.823Z,-3.20
2022-12-14T23:08:31.291Z,-3.30
2022-12-14T23:11:37.774Z,-3.40
2022-12-14T23:14:42.318Z,-3.50
2022-12-14T23:17:47.846Z,-3.60
2022-12-14T23:20:53.207Z,-3.60
2022-12-14T23:23:58.818Z,-3.60
2022-12-14T23:27:09.276Z,-3.70
2022-12-14T23:30:15.133Z,-3.60
2022-12-14T23:33:20.629Z,-3.60
2022-12-14T23:36:26.233Z,-3.60
2022-12-14T23:39:31.304Z,-3.50
2022-12-14T23:42:37.565Z,-3.50
2022-12-14T23:45:42.908Z,-3.50
2022-12-14T23:48:47.566Z,-3.40
2022-12-14T23:51:53.158Z,-3.40
2022-12-14T23:54:58.040Z,-3.40
2022-12-14T23:58:04.380Z,-3.30
